Terminal Aerodrome Forecast
Issued by NWS Bismarck, ND

Home | Current Version | Previous Version | Text Only | Print | Product List | Glossary On
Versions: 1 2 3 4 5 6 7 8 9 10 11 12 13 14 15 16 17 18 19 20
055
FTUS43 KBIS 231125
TAFISN
TAF
KISN 231125Z 2312/2412 29013KT P6SM FEW020 BKN050
     FM231400 31017G25KT P6SM SCT100
     FM240300 32011KT P6SM FEW060 FEW200=

USA.gov is the U.S. government's official web portal to all federal, state and local government web resources and services.